To NAV CANADA Home Page Login to a new session Search on AWWS site Feedback and Comments Disclaimer Vers la page française équivalente Tips FAQ What's new on the site To the Forecasts and Observations / NOTAM section To "File a Flight Plan" website Publications and other links Update of the User's profile FIC Telephone Numbers My Weather Data Folder Route Weather Data Regional Weather Data Local Weather Data To the Forecasts and Observations / NOTAM section
Request Generated 09/30/2016 at 03:10:45 UTC . Weather information available at that time is displayed.

METAR/TAF

HAMILTON/ON    

METAR CYHM 300300Z 06015G21KT 15SM -RA FEW011 OVC018 13/12 A3033 RMK
CF1SC7 SLP275=
METAR CYHM 300200Z 06015G21KT 12SM -RA FEW011 OVC018 14/13 A3032 RMK
CF2SC6 SLP272=
METAR CYHM 300100Z 06016G24KT 15SM -RA OVC018 14/12 A3031 RMK SC8
SLP267=

TAF CYHM 292341Z 3000/3024 05018G28KT 4SM -SHRA BR OVC007 TEMPO
3000/3002 P6SM NSW SCT008 OVC025
FM300200 06015G25KT P6SM FEW012 BKN025 TEMPO 3002/3007 5SM -SHRA
BR BKN012 OVC025
BECMG 3002/3004 06015KT
FM300700 06015KT P6SM OVC020 TEMPO 3007/3012 OVC030
FM301200 06015KT P6SM OVC030
FM301500 06015G25KT P6SM BKN040 OVC070
RMK NXT FCST BY 300600Z=
Your time UTC time
Weather data provided by Environment Canada and NAV CANADA